sensor_id;sensor_type;location;lat;lon;timestamp;P1;durP1;ratioP1;P2;durP2;ratioP2
68106;SDS011;54892;47.488;19.026;2022-07-15T00:01:36;1.02;;;0.98;;
68106;SDS011;54892;47.488;19.026;2022-07-15T00:04:41;1.95;;;0.95;;
68106;SDS011;54892;47.488;19.026;2022-07-15T00:07:45;4.37;;;1.00;;
68106;SDS011;54892;47.488;19.026;2022-07-15T00:10:48;3.05;;;0.98;;
68106;SDS011;54892;47.488;19.026;2022-07-15T00:13:51;1.42;;;0.95;;
68106;SDS011;54892;47.488;19.026;2022-07-15T00:16:57;1.00;;;0.90;;
68106;SDS011;54892;47.488;19.026;2022-07-15T00:20:02;6.12;;;1.08;;
68106;SDS011;54892;47.488;19.026;2022-07-15T00:23:06;2.42;;;1.10;;
68106;SDS011;54892;47.488;19.026;2022-07-15T00:26:09;6.22;;;0.98;;
68106;SDS011;54892;47.488;19.026;2022-07-15T00:29:13;1.73;;;1.05;;
68106;SDS011;54892;47.488;19.026;2022-07-15T00:32:17;1.25;;;1.00;;
68106;SDS011;54892;47.488;19.026;2022-07-15T00:35:21;2.65;;;0.90;;
68106;SDS011;54892;47.488;19.026;2022-07-15T00:38:26;3.35;;;1.30;;
68106;SDS011;54892;47.488;19.026;2022-07-15T00:41:34;1.87;;;0.90;;
68106;SDS011;54892;47.488;19.026;2022-07-15T00:44:38;1.05;;;0.80;;
68106;SDS011;54892;47.488;19.026;2022-07-15T00:47:42;1.87;;;1.10;;
68106;SDS011;54892;47.488;19.026;2022-07-15T00:50:47;1.77;;;1.12;;
68106;SDS011;54892;47.488;19.026;2022-07-15T00:53:51;1.35;;;1.12;;
68106;SDS011;54892;47.488;19.026;2022-07-15T00:56:56;5.93;;;1.10;;
68106;SDS011;54892;47.488;19.026;2022-07-15T01:00:01;4.95;;;1.17;;
68106;SDS011;54892;47.488;19.026;2022-07-15T01:03:06;2.37;;;1.37;;
68106;SDS011;54892;47.488;19.026;2022-07-15T01:06:11;4.55;;;1.50;;
68106;SDS011;54892;47.488;19.026;2022-07-15T01:09:15;2.30;;;1.00;;
68106;SDS011;54892;47.488;19.026;2022-07-15T01:12:23;2.47;;;0.90;;
68106;SDS011;54892;47.488;19.026;2022-07-15T01:15:27;2.42;;;1.05;;
68106;SDS011;54892;47.488;19.026;2022-07-15T01:18:32;4.50;;;0.98;;
68106;SDS011;54892;47.488;19.026;2022-07-15T01:21:37;3.62;;;0.93;;
68106;SDS011;54892;47.488;19.026;2022-07-15T01:24:40;3.20;;;1.20;;
68106;SDS011;54892;47.488;19.026;2022-07-15T01:27:43;1.37;;;1.10;;
68106;SDS011;54892;47.488;19.026;2022-07-15T01:30:47;5.47;;;1.08;;
68106;SDS011;54892;47.488;19.026;2022-07-15T01:33:50;3.45;;;1.37;;
68106;SDS011;54892;47.488;19.026;2022-07-15T01:36:57;3.58;;;1.30;;
68106;SDS011;54892;47.488;19.026;2022-07-15T01:40:00;2.28;;;1.00;;
68106;SDS011;54892;47.488;19.026;2022-07-15T01:43:04;3.62;;;1.20;;
68106;SDS011;54892;47.488;19.026;2022-07-15T01:46:07;2.75;;;1.30;;
68106;SDS011;54892;47.488;19.026;2022-07-15T01:49:12;3.62;;;1.30;;
68106;SDS011;54892;47.488;19.026;2022-07-15T01:52:25;1.33;;;1.10;;
68106;SDS011;54892;47.488;19.026;2022-07-15T01:55:29;6.30;;;1.30;;
68106;SDS011;54892;47.488;19.026;2022-07-15T01:58:32;4.20;;;1.62;;
68106;SDS011;54892;47.488;19.026;2022-07-15T02:01:36;1.20;;;1.08;;
68106;SDS011;54892;47.488;19.026;2022-07-15T02:04:39;3.37;;;1.83;;
68106;SDS011;54892;47.488;19.026;2022-07-15T02:07:44;8.20;;;1.35;;
68106;SDS011;54892;47.488;19.026;2022-07-15T02:10:47;3.60;;;1.00;;
68106;SDS011;54892;47.488;19.026;2022-07-15T02:13:51;8.10;;;1.17;;
68106;SDS011;54892;47.488;19.026;2022-07-15T02:16:55;2.03;;;1.10;;
68106;SDS011;54892;47.488;19.026;2022-07-15T02:19:59;1.92;;;0.98;;
68106;SDS011;54892;47.488;19.026;2022-07-15T02:23:03;4.07;;;1.25;;
68106;SDS011;54892;47.488;19.026;2022-07-15T02:26:07;6.28;;;0.95;;
68106;SDS011;54892;47.488;19.026;2022-07-15T02:29:11;2.67;;;0.90;;
68106;SDS011;54892;47.488;19.026;2022-07-15T02:32:14;4.78;;;1.00;;
68106;SDS011;54892;47.488;19.026;2022-07-15T02:35:17;2.83;;;1.30;;
68106;SDS011;54892;47.488;19.026;2022-07-15T02:38:22;3.28;;;1.23;;
68106;SDS011;54892;47.488;19.026;2022-07-15T02:41:25;3.40;;;1.08;;
68106;SDS011;54892;47.488;19.026;2022-07-15T02:44:29;6.20;;;1.10;;
68106;SDS011;54892;47.488;19.026;2022-07-15T02:47:33;7.40;;;0.95;;
68106;SDS011;54892;47.488;19.026;2022-07-15T02:50:36;4.68;;;1.10;;
68106;SDS011;54892;47.488;19.026;2022-07-15T02:53:41;1.62;;;0.85;;
68106;SDS011;54892;47.488;19.026;2022-07-15T02:56:44;1.23;;;0.60;;
68106;SDS011;54892;47.488;19.026;2022-07-15T02:59:48;3.35;;;0.85;;
68106;SDS011;54892;47.488;19.026;2022-07-15T03:02:51;1.95;;;0.80;;
68106;SDS011;54892;47.488;19.026;2022-07-15T03:05:55;1.67;;;0.75;;
68106;SDS011;54892;47.488;19.026;2022-07-15T03:09:00;2.40;;;0.70;;
68106;SDS011;54892;47.488;19.026;2022-07-15T03:15:07;2.17;;;1.00;;
68106;SDS011;54892;47.488;19.026;2022-07-15T03:18:11;1.50;;;0.50;;
68106;SDS011;54892;47.488;19.026;2022-07-15T03:21:15;1.05;;;0.50;;
68106;SDS011;54892;47.488;19.026;2022-07-15T03:24:19;1.00;;;0.60;;
68106;SDS011;54892;47.488;19.026;2022-07-15T03:27:24;0.57;;;0.50;;
68106;SDS011;54892;47.488;19.026;2022-07-15T03:30:27;0.73;;;0.40;;
68106;SDS011;54892;47.488;19.026;2022-07-15T03:33:33;1.00;;;0.50;;
68106;SDS011;54892;47.488;19.026;2022-07-15T03:36:36;1.30;;;0.60;;
68106;SDS011;54892;47.488;19.026;2022-07-15T03:42:45;1.05;;;0.50;;
68106;SDS011;54892;47.488;19.026;2022-07-15T03:45:48;1.20;;;0.60;;
68106;SDS011;54892;47.488;19.026;2022-07-15T03:48:52;5.65;;;0.90;;
68106;SDS011;54892;47.488;19.026;2022-07-15T03:51:56;1.02;;;0.82;;
68106;SDS011;54892;47.488;19.026;2022-07-15T03:55:00;3.05;;;0.80;;
68106;SDS011;54892;47.488;19.026;2022-07-15T03:58:04;1.95;;;0.60;;
68106;SDS011;54892;47.488;19.026;2022-07-15T04:04:13;1.87;;;1.05;;
68106;SDS011;54892;47.488;19.026;2022-07-15T04:07:16;3.47;;;0.73;;
68106;SDS011;54892;47.488;19.026;2022-07-15T04:10:21;1.05;;;0.60;;
68106;SDS011;54892;47.488;19.026;2022-07-15T04:13:24;1.33;;;0.62;;
68106;SDS011;54892;47.488;19.026;2022-07-15T04:16:27;4.95;;;0.80;;
68106;SDS011;54892;47.488;19.026;2022-07-15T04:19:31;0.50;;;0.50;;
68106;SDS011;54892;47.488;19.026;2022-07-15T04:22:38;0.82;;;0.60;;
68106;SDS011;54892;47.488;19.026;2022-07-15T04:25:42;1.62;;;0.80;;
68106;SDS011;54892;47.488;19.026;2022-07-15T04:28:46;2.60;;;0.90;;
68106;SDS011;54892;47.488;19.026;2022-07-15T04:31:50;1.87;;;1.25;;
68106;SDS011;54892;47.488;19.026;2022-07-15T04:34:53;0.60;;;0.60;;
68106;SDS011;54892;47.488;19.026;2022-07-15T04:37:57;3.40;;;0.90;;
68106;SDS011;54892;47.488;19.026;2022-07-15T04:41:01;2.62;;;0.90;;
68106;SDS011;54892;47.488;19.026;2022-07-15T04:44:05;0.70;;;0.70;;
68106;SDS011;54892;47.488;19.026;2022-07-15T04:47:08;4.37;;;0.80;;
68106;SDS011;54892;47.488;19.026;2022-07-15T04:50:11;0.75;;;0.73;;
68106;SDS011;54892;47.488;19.026;2022-07-15T04:53:31;3.67;;;0.80;;
68106;SDS011;54892;47.488;19.026;2022-07-15T04:56:36;2.62;;;0.90;;
68106;SDS011;54892;47.488;19.026;2022-07-15T04:59:40;2.47;;;0.90;;
68106;SDS011;54892;47.488;19.026;2022-07-15T05:02:43;2.75;;;1.02;;
68106;SDS011;54892;47.488;19.026;2022-07-15T05:05:46;3.22;;;0.98;;
68106;SDS011;54892;47.488;19.026;2022-07-15T05:08:49;3.20;;;0.80;;
68106;SDS011;54892;47.488;19.026;2022-07-15T05:11:53;3.80;;;0.93;;
68106;SDS011;54892;47.488;19.026;2022-07-15T05:14:57;0.90;;;0.70;;
68106;SDS011;54892;47.488;19.026;2022-07-15T05:18:00;9.07;;;1.00;;
68106;SDS011;54892;47.488;19.026;2022-07-15T05:21:04;2.10;;;0.90;;
68106;SDS011;54892;47.488;19.026;2022-07-15T05:24:10;2.70;;;0.85;;
68106;SDS011;54892;47.488;19.026;2022-07-15T05:27:30;3.37;;;0.90;;
68106;SDS011;54892;47.488;19.026;2022-07-15T05:30:33;15.40;;;1.40;;
68106;SDS011;54892;47.488;19.026;2022-07-15T05:33:39;2.30;;;1.00;;
68106;SDS011;54892;47.488;19.026;2022-07-15T05:36:42;1.83;;;1.10;;
68106;SDS011;54892;47.488;19.026;2022-07-15T05:39:46;3.45;;;1.10;;
68106;SDS011;54892;47.488;19.026;2022-07-15T05:43:00;4.45;;;1.10;;
68106;SDS011;54892;47.488;19.026;2022-07-15T05:46:05;2.25;;;0.90;;
68106;SDS011;54892;47.488;19.026;2022-07-15T05:49:08;1.00;;;0.90;;
68106;SDS011;54892;47.488;19.026;2022-07-15T05:52:11;4.18;;;0.98;;
68106;SDS011;54892;47.488;19.026;2022-07-15T05:55:15;2.75;;;0.90;;
68106;SDS011;54892;47.488;19.026;2022-07-15T05:58:19;1.67;;;0.90;;
68106;SDS011;54892;47.488;19.026;2022-07-15T06:04:26;5.28;;;1.10;;
68106;SDS011;54892;47.488;19.026;2022-07-15T06:07:29;12.45;;;1.00;;
68106;SDS011;54892;47.488;19.026;2022-07-15T06:10:33;2.62;;;1.00;;
68106;SDS011;54892;47.488;19.026;2022-07-15T06:13:37;1.37;;;1.00;;
68106;SDS011;54892;47.488;19.026;2022-07-15T06:16:41;2.90;;;1.10;;
68106;SDS011;54892;47.488;19.026;2022-07-15T06:19:44;6.32;;;1.33;;
68106;SDS011;54892;47.488;19.026;2022-07-15T06:22:47;6.05;;;0.95;;
68106;SDS011;54892;47.488;19.026;2022-07-15T06:25:51;0.98;;;0.90;;
68106;SDS011;54892;47.488;19.026;2022-07-15T06:28:58;1.95;;;1.10;;
68106;SDS011;54892;47.488;19.026;2022-07-15T06:32:02;1.75;;;1.15;;
68106;SDS011;54892;47.488;19.026;2022-07-15T06:35:06;12.32;;;1.30;;
68106;SDS011;54892;47.488;19.026;2022-07-15T06:38:10;19.15;;;1.55;;
68106;SDS011;54892;47.488;19.026;2022-07-15T06:41:14;3.83;;;1.10;;
68106;SDS011;54892;47.488;19.026;2022-07-15T06:44:18;5.97;;;1.10;;
68106;SDS011;54892;47.488;19.026;2022-07-15T06:47:22;5.97;;;1.50;;
68106;SDS011;54892;47.488;19.026;2022-07-15T06:50:27;2.05;;;1.40;;
68106;SDS011;54892;47.488;19.026;2022-07-15T06:53:31;4.37;;;1.45;;
68106;SDS011;54892;47.488;19.026;2022-07-15T06:56:34;4.10;;;1.40;;
68106;SDS011;54892;47.488;19.026;2022-07-15T06:59:39;3.53;;;1.42;;
68106;SDS011;54892;47.488;19.026;2022-07-15T07:06:40;3.97;;;1.87;;
68106;SDS011;54892;47.488;19.026;2022-07-15T07:09:43;2.05;;;1.10;;
68106;SDS011;54892;47.488;19.026;2022-07-15T07:12:47;4.75;;;1.10;;
68106;SDS011;54892;47.488;19.026;2022-07-15T07:15:52;4.30;;;1.37;;
68106;SDS011;54892;47.488;19.026;2022-07-15T07:18:55;1.15;;;1.10;;
68106;SDS011;54892;47.488;19.026;2022-07-15T07:21:58;1.17;;;0.90;;
68106;SDS011;54892;47.488;19.026;2022-07-15T07:25:02;2.33;;;0.98;;
68106;SDS011;54892;47.488;19.026;2022-07-15T07:28:05;1.20;;;1.10;;
68106;SDS011;54892;47.488;19.026;2022-07-15T07:31:11;8.73;;;1.45;;
68106;SDS011;54892;47.488;19.026;2022-07-15T07:34:18;2.50;;;1.27;;
68106;SDS011;54892;47.488;19.026;2022-07-15T07:37:21;3.87;;;1.50;;
68106;SDS011;54892;47.488;19.026;2022-07-15T07:40:25;2.35;;;1.23;;
68106;SDS011;54892;47.488;19.026;2022-07-15T07:43:29;1.33;;;1.20;;
68106;SDS011;54892;47.488;19.026;2022-07-15T07:46:35;3.00;;;1.50;;
68106;SDS011;54892;47.488;19.026;2022-07-15T07:49:39;9.00;;;1.58;;
68106;SDS011;54892;47.488;19.026;2022-07-15T07:52:42;1.70;;;1.17;;
68106;SDS011;54892;47.488;19.026;2022-07-15T07:55:46;3.05;;;1.58;;
68106;SDS011;54892;47.488;19.026;2022-07-15T07:58:49;7.07;;;1.12;;
68106;SDS011;54892;47.488;19.026;2022-07-15T08:01:54;2.55;;;1.48;;
68106;SDS011;54892;47.488;19.026;2022-07-15T08:04:58;6.12;;;1.60;;
68106;SDS011;54892;47.488;19.026;2022-07-15T08:08:10;13.15;;;1.65;;
68106;SDS011;54892;47.488;19.026;2022-07-15T08:11:14;2.17;;;1.55;;
68106;SDS011;54892;47.488;19.026;2022-07-15T08:14:21;3.58;;;1.50;;
68106;SDS011;54892;47.488;19.026;2022-07-15T08:17:27;5.95;;;1.67;;
68106;SDS011;54892;47.488;19.026;2022-07-15T08:20:30;2.63;;;1.70;;
68106;SDS011;54892;47.488;19.026;2022-07-15T08:23:33;7.43;;;1.87;;
68106;SDS011;54892;47.488;19.026;2022-07-15T08:26:39;3.50;;;1.60;;
68106;SDS011;54892;47.488;19.026;2022-07-15T08:29:42;4.93;;;1.75;;
68106;SDS011;54892;47.488;19.026;2022-07-15T08:32:47;3.75;;;1.60;;
68106;SDS011;54892;47.488;19.026;2022-07-15T08:35:50;3.53;;;1.50;;
68106;SDS011;54892;47.488;19.026;2022-07-15T08:38:54;2.00;;;1.60;;
68106;SDS011;54892;47.488;19.026;2022-07-15T08:41:58;6.15;;;1.48;;
68106;SDS011;54892;47.488;19.026;2022-07-15T08:45:01;1.73;;;1.62;;
68106;SDS011;54892;47.488;19.026;2022-07-15T08:48:06;2.47;;;1.50;;
68106;SDS011;54892;47.488;19.026;2022-07-15T08:51:10;3.08;;;2.03;;
68106;SDS011;54892;47.488;19.026;2022-07-15T08:54:13;4.55;;;1.98;;
68106;SDS011;54892;47.488;19.026;2022-07-15T08:57:17;2.90;;;1.93;;
68106;SDS011;54892;47.488;19.026;2022-07-15T09:00:20;7.28;;;2.30;;
68106;SDS011;54892;47.488;19.026;2022-07-15T09:03:31;3.42;;;2.28;;
68106;SDS011;54892;47.488;19.026;2022-07-15T09:06:35;4.90;;;2.28;;
68106;SDS011;54892;47.488;19.026;2022-07-15T09:09:39;7.45;;;2.28;;
68106;SDS011;54892;47.488;19.026;2022-07-15T09:12:42;3.05;;;2.10;;
68106;SDS011;54892;47.488;19.026;2022-07-15T09:15:45;4.18;;;2.20;;
68106;SDS011;54892;47.488;19.026;2022-07-15T09:18:50;6.30;;;2.05;;
68106;SDS011;54892;47.488;19.026;2022-07-15T09:25:05;8.93;;;2.35;;
68106;SDS011;54892;47.488;19.026;2022-07-15T09:28:10;2.25;;;1.80;;
68106;SDS011;54892;47.488;19.026;2022-07-15T09:31:13;3.17;;;1.90;;
68106;SDS011;54892;47.488;19.026;2022-07-15T09:34:32;2.55;;;2.20;;
68106;SDS011;54892;47.488;19.026;2022-07-15T09:37:42;5.25;;;1.95;;
68106;SDS011;54892;47.488;19.026;2022-07-15T09:40:57;6.47;;;2.00;;
68106;SDS011;54892;47.488;19.026;2022-07-15T09:44:02;7.93;;;2.62;;
68106;SDS011;54892;47.488;19.026;2022-07-15T09:47:09;3.60;;;1.90;;
68106;SDS011;54892;47.488;19.026;2022-07-15T09:50:33;3.83;;;1.92;;
68106;SDS011;54892;47.488;19.026;2022-07-15T09:53:38;4.78;;;2.10;;
68106;SDS011;54892;47.488;19.026;2022-07-15T09:56:41;6.90;;;2.45;;
68106;SDS011;54892;47.488;19.026;2022-07-15T09:59:47;10.32;;;2.70;;
68106;SDS011;54892;47.488;19.026;2022-07-15T10:02:52;6.28;;;1.98;;
68106;SDS011;54892;47.488;19.026;2022-07-15T10:05:57;3.62;;;1.80;;
68106;SDS011;54892;47.488;19.026;2022-07-15T10:12:07;9.82;;;2.58;;
68106;SDS011;54892;47.488;19.026;2022-07-15T10:15:13;5.45;;;2.20;;
68106;SDS011;54892;47.488;19.026;2022-07-15T10:18:31;4.82;;;2.00;;
68106;SDS011;54892;47.488;19.026;2022-07-15T10:21:52;2.67;;;2.40;;
68106;SDS011;54892;47.488;19.026;2022-07-15T10:25:15;4.85;;;2.30;;
68106;SDS011;54892;47.488;19.026;2022-07-15T10:28:29;6.87;;;2.12;;
68106;SDS011;54892;47.488;19.026;2022-07-15T10:34:42;2.50;;;1.80;;
68106;SDS011;54892;47.488;19.026;2022-07-15T10:41:23;28.75;;;2.90;;
68106;SDS011;54892;47.488;19.026;2022-07-15T10:44:29;6.70;;;1.55;;
68106;SDS011;54892;47.488;19.026;2022-07-15T10:47:34;4.93;;;1.25;;
68106;SDS011;54892;47.488;19.026;2022-07-15T10:50:38;3.17;;;1.20;;
68106;SDS011;54892;47.488;19.026;2022-07-15T10:53:42;4.20;;;1.50;;
68106;SDS011;54892;47.488;19.026;2022-07-15T10:56:48;5.35;;;1.60;;
68106;SDS011;54892;47.488;19.026;2022-07-15T10:59:53;10.05;;;1.40;;
68106;SDS011;54892;47.488;19.026;2022-07-15T11:03:02;7.93;;;1.87;;
68106;SDS011;54892;47.488;19.026;2022-07-15T11:06:08;5.53;;;1.73;;
68106;SDS011;54892;47.488;19.026;2022-07-15T11:09:11;7.82;;;1.33;;
68106;SDS011;54892;47.488;19.026;2022-07-15T11:16:08;5.00;;;1.20;;
68106;SDS011;54892;47.488;19.026;2022-07-15T11:19:12;6.53;;;1.85;;
68106;SDS011;54892;47.488;19.026;2022-07-15T11:22:17;4.00;;;1.27;;
68106;SDS011;54892;47.488;19.026;2022-07-15T11:25:24;7.03;;;1.40;;
68106;SDS011;54892;47.488;19.026;2022-07-15T11:28:30;2.35;;;1.50;;
68106;SDS011;54892;47.488;19.026;2022-07-15T11:31:38;10.68;;;1.77;;
68106;SDS011;54892;47.488;19.026;2022-07-15T11:34:43;3.65;;;1.60;;
68106;SDS011;54892;47.488;19.026;2022-07-15T11:37:47;2.62;;;1.25;;
68106;SDS011;54892;47.488;19.026;2022-07-15T11:40:51;3.78;;;1.40;;
68106;SDS011;54892;47.488;19.026;2022-07-15T11:44:14;2.83;;;1.37;;
68106;SDS011;54892;47.488;19.026;2022-07-15T11:47:34;3.10;;;1.30;;
68106;SDS011;54892;47.488;19.026;2022-07-15T11:50:39;5.85;;;1.48;;
68106;SDS011;54892;47.488;19.026;2022-07-15T11:53:54;2.25;;;1.12;;
68106;SDS011;54892;47.488;19.026;2022-07-15T11:56:59;5.47;;;1.40;;
68106;SDS011;54892;47.488;19.026;2022-07-15T12:00:05;9.23;;;1.40;;
68106;SDS011;54892;47.488;19.026;2022-07-15T12:03:13;3.72;;;1.48;;
68106;SDS011;54892;47.488;19.026;2022-07-15T12:06:17;3.20;;;1.12;;
68106;SDS011;54892;47.488;19.026;2022-07-15T12:09:21;5.93;;;1.55;;
68106;SDS011;54892;47.488;19.026;2022-07-15T12:12:25;5.18;;;1.60;;
68106;SDS011;54892;47.488;19.026;2022-07-15T12:15:29;2.42;;;1.27;;
68106;SDS011;54892;47.488;19.026;2022-07-15T12:18:33;6.82;;;1.30;;
68106;SDS011;54892;47.488;19.026;2022-07-15T12:21:37;3.90;;;1.45;;
68106;SDS011;54892;47.488;19.026;2022-07-15T12:27:46;4.57;;;1.10;;
68106;SDS011;54892;47.488;19.026;2022-07-15T12:30:52;3.97;;;1.42;;
68106;SDS011;54892;47.488;19.026;2022-07-15T12:33:55;3.62;;;1.20;;
68106;SDS011;54892;47.488;19.026;2022-07-15T12:36:58;6.40;;;1.70;;
68106;SDS011;54892;47.488;19.026;2022-07-15T12:40:04;2.42;;;1.23;;
68106;SDS011;54892;47.488;19.026;2022-07-15T12:43:09;4.82;;;1.30;;
68106;SDS011;54892;47.488;19.026;2022-07-15T12:46:14;3.72;;;1.00;;
68106;SDS011;54892;47.488;19.026;2022-07-15T12:52:39;1.73;;;1.17;;
68106;SDS011;54892;47.488;19.026;2022-07-15T12:55:44;2.83;;;1.08;;
68106;SDS011;54892;47.488;19.026;2022-07-15T12:58:49;3.05;;;1.40;;
68106;SDS011;54892;47.488;19.026;2022-07-15T13:02:03;6.28;;;1.12;;
68106;SDS011;54892;47.488;19.026;2022-07-15T13:05:08;5.72;;;1.30;;
68106;SDS011;54892;47.488;19.026;2022-07-15T13:08:12;10.60;;;1.25;;
68106;SDS011;54892;47.488;19.026;2022-07-15T13:11:17;3.00;;;1.12;;
68106;SDS011;54892;47.488;19.026;2022-07-15T13:14:21;8.77;;;1.37;;
68106;SDS011;54892;47.488;19.026;2022-07-15T13:17:26;2.03;;;1.20;;
68106;SDS011;54892;47.488;19.026;2022-07-15T13:20:29;16.67;;;1.90;;
68106;SDS011;54892;47.488;19.026;2022-07-15T13:23:32;9.63;;;1.42;;
68106;SDS011;54892;47.488;19.026;2022-07-15T13:26:35;3.78;;;1.70;;
68106;SDS011;54892;47.488;19.026;2022-07-15T13:29:39;3.22;;;1.10;;
68106;SDS011;54892;47.488;19.026;2022-07-15T13:32:45;7.93;;;1.40;;
68106;SDS011;54892;47.488;19.026;2022-07-15T13:35:49;8.25;;;1.35;;
68106;SDS011;54892;47.488;19.026;2022-07-15T13:38:52;4.28;;;1.35;;
68106;SDS011;54892;47.488;19.026;2022-07-15T13:41:56;5.75;;;1.27;;
68106;SDS011;54892;47.488;19.026;2022-07-15T13:44:59;2.75;;;1.27;;
68106;SDS011;54892;47.488;19.026;2022-07-15T13:48:05;4.50;;;1.30;;
68106;SDS011;54892;47.488;19.026;2022-07-15T13:51:08;1.95;;;1.37;;
68106;SDS011;54892;47.488;19.026;2022-07-15T13:54:26;5.72;;;1.42;;
68106;SDS011;54892;47.488;19.026;2022-07-15T13:57:30;8.55;;;1.40;;
68106;SDS011;54892;47.488;19.026;2022-07-15T14:00:33;3.10;;;1.20;;
68106;SDS011;54892;47.488;19.026;2022-07-15T14:03:39;3.08;;;1.23;;
68106;SDS011;54892;47.488;19.026;2022-07-15T14:06:45;3.15;;;1.48;;
68106;SDS011;54892;47.488;19.026;2022-07-15T14:09:49;1.45;;;1.20;;
68106;SDS011;54892;47.488;19.026;2022-07-15T14:12:52;3.92;;;1.45;;
68106;SDS011;54892;47.488;19.026;2022-07-15T14:15:56;4.70;;;1.20;;
68106;SDS011;54892;47.488;19.026;2022-07-15T14:19:02;3.50;;;1.37;;
68106;SDS011;54892;47.488;19.026;2022-07-15T14:22:06;4.37;;;1.77;;
68106;SDS011;54892;47.488;19.026;2022-07-15T14:25:09;11.12;;;1.20;;
68106;SDS011;54892;47.488;19.026;2022-07-15T14:28:12;7.22;;;1.23;;
68106;SDS011;54892;47.488;19.026;2022-07-15T14:31:17;2.97;;;1.10;;
68106;SDS011;54892;47.488;19.026;2022-07-15T14:34:22;2.55;;;1.08;;
68106;SDS011;54892;47.488;19.026;2022-07-15T14:37:25;8.85;;;1.25;;
68106;SDS011;54892;47.488;19.026;2022-07-15T14:40:33;6.62;;;1.60;;
68106;SDS011;54892;47.488;19.026;2022-07-15T14:43:36;13.95;;;1.30;;
68106;SDS011;54892;47.488;19.026;2022-07-15T14:46:39;2.08;;;1.20;;
68106;SDS011;54892;47.488;19.026;2022-07-15T14:49:44;3.90;;;1.20;;
68106;SDS011;54892;47.488;19.026;2022-07-15T14:52:47;3.15;;;1.08;;
68106;SDS011;54892;47.488;19.026;2022-07-15T14:55:51;2.70;;;1.30;;
68106;SDS011;54892;47.488;19.026;2022-07-15T14:58:54;5.93;;;1.17;;
68106;SDS011;54892;47.488;19.026;2022-07-15T15:01:57;1.23;;;1.10;;
68106;SDS011;54892;47.488;19.026;2022-07-15T15:05:03;3.10;;;1.15;;
68106;SDS011;54892;47.488;19.026;2022-07-15T15:08:06;3.17;;;1.10;;
68106;SDS011;54892;47.488;19.026;2022-07-15T15:11:12;5.47;;;1.00;;
68106;SDS011;54892;47.488;19.026;2022-07-15T15:14:16;5.35;;;1.17;;
68106;SDS011;54892;47.488;19.026;2022-07-15T15:17:19;1.00;;;0.90;;
68106;SDS011;54892;47.488;19.026;2022-07-15T15:20:24;4.45;;;1.30;;
68106;SDS011;54892;47.488;19.026;2022-07-15T15:23:28;3.78;;;1.30;;
68106;SDS011;54892;47.488;19.026;2022-07-15T15:26:32;2.78;;;1.15;;
68106;SDS011;54892;47.488;19.026;2022-07-15T15:29:36;2.37;;;1.02;;
68106;SDS011;54892;47.488;19.026;2022-07-15T15:32:39;3.87;;;1.20;;
68106;SDS011;54892;47.488;19.026;2022-07-15T15:35:43;3.28;;;1.17;;
68106;SDS011;54892;47.488;19.026;2022-07-15T15:38:47;5.78;;;1.25;;
68106;SDS011;54892;47.488;19.026;2022-07-15T15:41:50;3.55;;;1.40;;
68106;SDS011;54892;47.488;19.026;2022-07-15T15:44:54;4.18;;;1.20;;
68106;SDS011;54892;47.488;19.026;2022-07-15T15:47:57;3.67;;;1.15;;
68106;SDS011;54892;47.488;19.026;2022-07-15T15:51:02;2.10;;;1.20;;
68106;SDS011;54892;47.488;19.026;2022-07-15T15:54:05;2.15;;;1.20;;
68106;SDS011;54892;47.488;19.026;2022-07-15T15:57:10;1.48;;;1.10;;
68106;SDS011;54892;47.488;19.026;2022-07-15T16:00:14;2.90;;;1.20;;
68106;SDS011;54892;47.488;19.026;2022-07-15T16:03:17;2.55;;;1.25;;
68106;SDS011;54892;47.488;19.026;2022-07-15T16:06:22;3.37;;;1.10;;
68106;SDS011;54892;47.488;19.026;2022-07-15T16:09:25;1.55;;;1.20;;
68106;SDS011;54892;47.488;19.026;2022-07-15T16:12:28;4.25;;;1.35;;
68106;SDS011;54892;47.488;19.026;2022-07-15T16:15:33;3.70;;;1.23;;
68106;SDS011;54892;47.488;19.026;2022-07-15T16:18:36;3.95;;;1.02;;
68106;SDS011;54892;47.488;19.026;2022-07-15T16:21:41;4.30;;;1.17;;
68106;SDS011;54892;47.488;19.026;2022-07-15T16:25:01;1.75;;;1.23;;
68106;SDS011;54892;47.488;19.026;2022-07-15T16:28:07;3.92;;;1.10;;
68106;SDS011;54892;47.488;19.026;2022-07-15T16:31:13;3.75;;;1.20;;
68106;SDS011;54892;47.488;19.026;2022-07-15T16:34:16;7.60;;;1.30;;
68106;SDS011;54892;47.488;19.026;2022-07-15T16:37:21;3.42;;;1.40;;
68106;SDS011;54892;47.488;19.026;2022-07-15T16:40:24;2.55;;;1.00;;
68106;SDS011;54892;47.488;19.026;2022-07-15T16:43:28;3.00;;;1.30;;
68106;SDS011;54892;47.488;19.026;2022-07-15T16:46:31;1.77;;;1.20;;
68106;SDS011;54892;47.488;19.026;2022-07-15T16:49:35;3.53;;;1.10;;
68106;SDS011;54892;47.488;19.026;2022-07-15T16:52:40;1.73;;;1.20;;
68106;SDS011;54892;47.488;19.026;2022-07-15T16:55:43;1.58;;;1.20;;
68106;SDS011;54892;47.488;19.026;2022-07-15T16:58:47;3.37;;;1.40;;
68106;SDS011;54892;47.488;19.026;2022-07-15T17:01:51;2.92;;;1.20;;
68106;SDS011;54892;47.488;19.026;2022-07-15T17:04:55;2.75;;;1.30;;
68106;SDS011;54892;47.488;19.026;2022-07-15T17:08:02;3.72;;;1.23;;
68106;SDS011;54892;47.488;19.026;2022-07-15T17:11:06;3.25;;;1.40;;
68106;SDS011;54892;47.488;19.026;2022-07-15T17:14:10;4.15;;;1.40;;
68106;SDS011;54892;47.488;19.026;2022-07-15T17:17:13;2.17;;;1.10;;
68106;SDS011;54892;47.488;19.026;2022-07-15T17:20:16;3.87;;;1.40;;
68106;SDS011;54892;47.488;19.026;2022-07-15T17:23:21;4.32;;;1.25;;
68106;SDS011;54892;47.488;19.026;2022-07-15T17:26:25;1.42;;;1.10;;
68106;SDS011;54892;47.488;19.026;2022-07-15T17:29:29;5.85;;;1.30;;
68106;SDS011;54892;47.488;19.026;2022-07-15T17:32:32;2.37;;;1.17;;
68106;SDS011;54892;47.488;19.026;2022-07-15T17:35:38;6.87;;;1.23;;
68106;SDS011;54892;47.488;19.026;2022-07-15T17:38:42;1.40;;;1.15;;
68106;SDS011;54892;47.488;19.026;2022-07-15T17:41:47;4.85;;;1.40;;
68106;SDS011;54892;47.488;19.026;2022-07-15T17:44:50;1.48;;;1.05;;
68106;SDS011;54892;47.488;19.026;2022-07-15T17:47:53;1.73;;;1.02;;
68106;SDS011;54892;47.488;19.026;2022-07-15T17:50:57;1.73;;;1.10;;
68106;SDS011;54892;47.488;19.026;2022-07-15T17:54:01;2.33;;;1.30;;
68106;SDS011;54892;47.488;19.026;2022-07-15T17:57:06;2.50;;;1.20;;
68106;SDS011;54892;47.488;19.026;2022-07-15T18:00:10;2.12;;;1.05;;
68106;SDS011;54892;47.488;19.026;2022-07-15T18:03:14;1.23;;;0.95;;
68106;SDS011;54892;47.488;19.026;2022-07-15T18:06:18;4.67;;;1.30;;
68106;SDS011;54892;47.488;19.026;2022-07-15T18:09:23;1.25;;;1.00;;
68106;SDS011;54892;47.488;19.026;2022-07-15T18:12:26;5.62;;;1.50;;
68106;SDS011;54892;47.488;19.026;2022-07-15T18:15:29;3.08;;;1.08;;
68106;SDS011;54892;47.488;19.026;2022-07-15T18:18:32;4.75;;;1.30;;
68106;SDS011;54892;47.488;19.026;2022-07-15T18:21:36;3.42;;;0.98;;
68106;SDS011;54892;47.488;19.026;2022-07-15T18:24:40;2.15;;;1.15;;
68106;SDS011;54892;47.488;19.026;2022-07-15T18:27:45;2.45;;;1.02;;
68106;SDS011;54892;47.488;19.026;2022-07-15T18:30:49;3.37;;;1.10;;
68106;SDS011;54892;47.488;19.026;2022-07-15T18:33:52;1.80;;;0.90;;
68106;SDS011;54892;47.488;19.026;2022-07-15T18:36:58;1.00;;;0.73;;
68106;SDS011;54892;47.488;19.026;2022-07-15T18:40:03;4.80;;;1.00;;
68106;SDS011;54892;47.488;19.026;2022-07-15T18:43:07;3.87;;;1.10;;
68106;SDS011;54892;47.488;19.026;2022-07-15T18:46:11;1.50;;;0.90;;
68106;SDS011;54892;47.488;19.026;2022-07-15T18:49:15;1.95;;;1.15;;
68106;SDS011;54892;47.488;19.026;2022-07-15T18:52:18;1.55;;;0.90;;
68106;SDS011;54892;47.488;19.026;2022-07-15T18:55:23;3.37;;;1.00;;